Time;durP1;ratioP1;P1;durP2;ratioP2;P2;SDS_P1;SDS_P2;PMS_P1;PMS_P2;Temp;Humidity;BMP_temperature;BMP_pressure;BME280_temperature;BME280_humidity;BME280_pressure;Samples;Min_cycle;Max_cycle;Signal;HPM_P1;HPM_P2
2022/01/16 00:00:42;;;;;;;2.85;2.58;;;;;;;;;;5076508;28;20201;-82
2022/01/16 00:05:55;;;;;;;3.15;2.85;;;;;;;;;;5076617;28;20312;-83
2022/01/16 00:08:24;;;;;;;2.80;2.60;;;;;;;;;;5076681;28;20246;-83
2022/01/16 00:10:51;;;;;;;3.53;3.22;;;;;;;;;;5076194;28;20193;-83
2022/01/16 00:13:19;;;;;;;2.42;2.22;;;;;;;;;;5076285;28;20267;-83
2022/01/16 00:15:46;;;;;;;2.08;1.90;;;;;;;;;;5076631;28;20200;-82
2022/01/16 00:18:21;;;;;;;3.13;2.55;;;;;;;;;;5076367;28;20193;-82
2022/01/16 00:20:49;;;;;;;3.20;2.63;;;;;;;;;;5075442;28;20200;-82
2022/01/16 00:23:23;;;;;;;3.25;2.95;;;;;;;;;;5076140;28;20217;-82
2022/01/16 00:25:53;;;;;;;3.05;2.75;;;;;;;;;;5076432;28;20323;-83
2022/01/16 00:28:21;;;;;;;3.22;2.92;;;;;;;;;;5076006;28;20201;-83
2022/01/16 00:30:48;;;;;;;2.80;2.60;;;;;;;;;;5076175;28;20200;-83
2022/01/16 00:33:16;;;;;;;3.05;2.75;;;;;;;;;;5075767;28;20224;-83
2022/01/16 00:35:43;;;;;;;3.47;3.17;;;;;;;;;;5076291;28;20576;-82
2022/01/16 00:38:11;;;;;;;3.05;2.75;;;;;;;;;;5076047;28;20742;-82
2022/01/16 00:40:38;;;;;;;3.08;2.78;;;;;;;;;;5075175;28;20204;-82
2022/01/16 00:43:07;;;;;;;2.50;2.30;;;;;;;;;;5075398;28;20221;-82
2022/01/16 00:45:34;;;;;;;2.97;2.47;;;;;;;;;;5076011;28;20286;-82
2022/01/16 00:48:03;;;;;;;3.08;2.75;;;;;;;;;;5075877;28;20201;-82
2022/01/16 00:50:31;;;;;;;2.33;2.13;;;;;;;;;;5075968;28;20201;-83
2022/01/16 00:52:58;;;;;;;2.60;2.40;;;;;;;;;;5075435;28;20274;-82
2022/01/16 00:55:25;;;;;;;2.75;2.45;;;;;;;;;;5075655;28;20209;-82
2022/01/16 00:57:53;;;;;;;2.95;2.75;;;;;;;;;;5075709;28;20204;-82
2022/01/16 01:00:22;;;;;;;2.75;2.55;;;;;;;;;;5075038;28;20204;-82
2022/01/16 01:02:51;;;;;;;2.30;2.10;;;;;;;;;;5075100;28;20239;-82
2022/01/16 01:05:18;;;;;;;3.92;3.10;;;;;;;;;;5075409;28;20227;-81
2022/01/16 01:07:45;;;;;;;2.80;2.60;;;;;;;;;;5075906;28;20200;-82
2022/01/16 01:10:14;;;;;;;3.53;3.20;;;;;;;;;;5074739;28;20204;-82
2022/01/16 01:12:53;;;;;;;4.00;3.60;;;;;;;;;;5075334;28;20225;-83
2022/01/16 01:15:26;;;;;;;3.00;2.70;;;;;;;;;;5075116;28;20197;-82
2022/01/16 01:17:54;;;;;;;3.08;2.83;;;;;;;;;;5075235;28;20737;-82
2022/01/16 01:20:25;;;;;;;3.75;3.42;;;;;;;;;;5074687;28;20668;-82
2022/01/16 01:22:54;;;;;;;4.45;3.45;;;;;;;;;;5074910;28;20340;-82
2022/01/16 01:25:22;;;;;;;3.33;3.03;;;;;;;;;;5075048;28;20221;-82
2022/01/16 01:27:49;;;;;;;4.05;3.25;;;;;;;;;;5075002;28;20247;-82
2022/01/16 01:30:20;;;;;;;4.90;4.40;;;;;;;;;;5074973;28;20208;-82
2022/01/16 01:32:51;;;;;;;3.45;3.15;;;;;;;;;;5074209;28;20229;-82
2022/01/16 01:35:19;;;;;;;4.13;3.70;;;;;;;;;;5074499;28;20216;-81
2022/01/16 01:37:48;;;;;;;3.75;3.22;;;;;;;;;;5078048;28;20266;-82
2022/01/16 01:40:18;;;;;;;3.95;3.05;;;;;;;;;;5080093;28;20696;-83
2022/01/16 01:42:51;;;;;;;3.97;3.58;;;;;;;;;;5080448;28;20213;-82
2022/01/16 01:51:09;;;;;;;3.88;3.58;;;;;;;;;;5075218;28;20582;-83
2022/01/16 01:53:37;;;;;;;4.18;3.50;;;;;;;;;;5075184;28;20316;-83
2022/01/16 01:56:06;;;;;;;3.80;3.42;;;;;;;;;;5075153;28;20207;-83
2022/01/16 01:58:34;;;;;;;3.63;3.33;;;;;;;;;;5074725;28;20255;-83
2022/01/16 02:01:02;;;;;;;3.97;3.63;;;;;;;;;;5075422;28;20200;-83
2022/01/16 02:03:42;;;;;;;4.10;3.70;;;;;;;;;;5074627;28;20282;-82
2022/01/16 02:06:10;;;;;;;3.17;2.88;;;;;;;;;;5074859;28;20235;-83
2022/01/16 02:08:37;;;;;;;3.05;2.75;;;;;;;;;;5075206;28;20247;-83
2022/01/16 02:11:05;;;;;;;3.35;3.00;;;;;;;;;;5074874;28;20258;-83
2022/01/16 02:13:44;;;;;;;3.85;3.13;;;;;;;;;;5074998;28;20712;-83
2022/01/16 02:30:39;;;;;;;4.43;3.75;;;;;;;;;;5074722;28;20198;-84
2022/01/16 02:33:23;;;;;;;3.67;3.25;;;;;;;;;;5074029;28;20229;-83
2022/01/16 02:35:53;;;;;;;3.83;3.40;;;;;;;;;;5074286;28;20193;-82
2022/01/16 02:38:21;;;;;;;3.83;3.00;;;;;;;;;;5074637;28;20300;-83
2022/01/16 02:40:59;;;;;;;5.22;3.63;;;;;;;;;;5074204;28;20583;-82
2022/01/16 02:43:31;;;;;;;4.15;3.75;;;;;;;;;;5075409;28;20785;-83
2022/01/16 02:46:35;;;;;;;5.00;4.40;;;;;;;;;;5078403;28;20278;-81
2022/01/16 02:48:57;;;;;;;4.18;3.78;;;;;;;;;;5077801;28;20243;-83
2022/01/16 02:51:26;;;;;;;4.38;3.97;;;;;;;;;;5078231;28;20227;-81
2022/01/16 02:53:54;;;;;;;7.80;4.10;;;;;;;;;;5077532;28;20224;-82
2022/01/16 02:56:23;;;;;;;4.55;4.00;;;;;;;;;;5077648;28;20197;-82
2022/01/16 02:58:51;;;;;;;4.20;3.80;;;;;;;;;;5077813;28;20193;-81
2022/01/16 03:01:19;;;;;;;5.25;4.43;;;;;;;;;;5077337;28;20255;-82
2022/01/16 03:03:47;;;;;;;5.57;3.85;;;;;;;;;;5077177;28;20274;-81
2022/01/16 03:06:15;;;;;;;6.15;4.65;;;;;;;;;;5077366;28;20311;-82
2022/01/16 03:08:42;;;;;;;5.07;4.50;;;;;;;;;;5076934;28;20201;-82
2022/01/16 03:11:22;;;;;;;5.18;4.40;;;;;;;;;;5077330;28;20205;-82
2022/01/16 03:13:51;;;;;;;4.63;4.00;;;;;;;;;;5077126;28;20263;-81
2022/01/16 03:16:21;;;;;;;3.92;3.05;;;;;;;;;;5077420;28;20201;-82
2022/01/16 03:24:19;;;;;;;4.97;3.95;;;;;;;;;;5077223;28;20203;-82
2022/01/16 03:26:47;;;;;;;4.72;4.30;;;;;;;;;;5077126;28;20228;-82
2022/01/16 03:29:15;;;;;;;4.82;3.58;;;;;;;;;;5076815;28;20205;-82
2022/01/16 03:31:43;;;;;;;4.78;4.28;;;;;;;;;;5076159;28;20205;-82
2022/01/16 03:34:10;;;;;;;4.15;3.72;;;;;;;;;;5077462;28;20208;-82
2022/01/16 03:36:37;;;;;;;5.53;4.07;;;;;;;;;;5077285;28;20201;-82
2022/01/16 03:39:05;;;;;;;5.40;3.70;;;;;;;;;;5076959;28;20204;-83
2022/01/16 03:41:34;;;;;;;4.53;4.05;;;;;;;;;;5077182;28;20208;-82
2022/01/16 03:44:02;;;;;;;3.95;3.55;;;;;;;;;;5077163;28;20225;-82
2022/01/16 03:46:34;;;;;;;4.13;3.72;;;;;;;;;;5076958;28;20696;-82
2022/01/16 03:49:06;;;;;;;3.90;3.03;;;;;;;;;;5077304;28;20659;-82
2022/01/16 03:51:33;;;;;;;4.60;3.42;;;;;;;;;;5076600;28;20246;-82
2022/01/16 03:54:01;;;;;;;4.15;3.75;;;;;;;;;;5076475;28;20236;-82
2022/01/16 03:56:28;;;;;;;3.08;2.80;;;;;;;;;;5076289;28;20201;-82
2022/01/16 03:58:55;;;;;;;3.50;3.20;;;;;;;;;;5076899;28;20201;-82
2022/01/16 04:01:24;;;;;;;3.30;2.83;;;;;;;;;;5077075;28;20209;-82
2022/01/16 04:03:53;;;;;;;3.70;3.13;;;;;;;;;;5076768;28;20217;-82
2022/01/16 04:06:21;;;;;;;3.33;3.03;;;;;;;;;;5077140;28;20228;-82
2022/01/16 04:08:48;;;;;;;3.80;3.47;;;;;;;;;;5076884;28;20201;-82
2022/01/16 04:11:17;;;;;;;3.75;2.95;;;;;;;;;;5076639;28;20577;-82
2022/01/16 04:13:50;;;;;;;3.03;2.72;;;;;;;;;;5076356;28;20224;-82
2022/01/16 04:16:19;;;;;;;3.97;3.58;;;;;;;;;;5076804;28;20274;-83
2022/01/16 04:18:50;;;;;;;3.55;2.78;;;;;;;;;;5076396;28;20201;-82
2022/01/16 04:21:19;;;;;;;4.78;3.50;;;;;;;;;;5076440;28;20201;-82
2022/01/16 04:23:47;;;;;;;3.35;3.05;;;;;;;;;;5076280;28;20209;-83
2022/01/16 04:26:15;;;;;;;3.15;2.55;;;;;;;;;;5076883;28;20614;-82
2022/01/16 04:28:42;;;;;;;3.58;3.28;;;;;;;;;;5076152;28;20266;-83
2022/01/16 04:31:10;;;;;;;2.85;2.63;;;;;;;;;;5076309;28;20726;-83
2022/01/16 04:33:37;;;;;;;3.05;2.75;;;;;;;;;;5076143;28;20229;-83
2022/01/16 04:36:06;;;;;;;2.75;2.42;;;;;;;;;;5075876;28;20227;-82
2022/01/16 04:38:36;;;;;;;2.38;2.17;;;;;;;;;;5076201;28;20197;-83
2022/01/16 04:43:50;;;;;;;2.63;2.33;;;;;;;;;;5076242;28;20219;-83
2022/01/16 04:46:18;;;;;;;2.17;1.98;;;;;;;;;;5075889;28;20192;-82
2022/01/16 04:48:45;;;;;;;2.92;2.72;;;;;;;;;;5076094;28;20626;-82
2022/01/16 04:51:13;;;;;;;2.20;2.08;;;;;;;;;;5075863;28;20246;-82
2022/01/16 04:53:42;;;;;;;3.17;2.63;;;;;;;;;;5075630;28;20217;-82
2022/01/16 04:56:10;;;;;;;3.33;2.92;;;;;;;;;;5075688;28;20197;-82
2022/01/16 04:58:38;;;;;;;2.65;2.45;;;;;;;;;;5075597;28;20236;-82
2022/01/16 05:01:06;;;;;;;2.42;2.15;;;;;;;;;;5075366;28;20279;-82
2022/01/16 05:03:35;;;;;;;2.47;2.28;;;;;;;;;;5075770;28;20229;-82
2022/01/16 05:06:03;;;;;;;1.77;1.67;;;;;;;;;;5075182;28;20208;-82
2022/01/16 05:08:31;;;;;;;2.83;2.50;;;;;;;;;;5074823;28;20217;-82
2022/01/16 05:11:00;;;;;;;2.25;2.05;;;;;;;;;;5075064;28;20209;-82
2022/01/16 05:16:34;;;;;;;2.50;2.30;;;;;;;;;;5075592;28;20229;-82
2022/01/16 05:16:35;;;;;;;1.85;1.73;;;;;;;;;;5075635;28;20587;-82
2022/01/16 05:19:03;;;;;;;1.50;1.40;;;;;;;;;;5075551;28;20672;-82
2022/01/16 05:21:31;;;;;;;1.60;1.50;;;;;;;;;;5075376;28;20292;-84
2022/01/16 05:23:58;;;;;;;1.63;1.52;;;;;;;;;;5075503;28;20209;-82
2022/01/16 05:26:28;;;;;;;1.55;1.45;;;;;;;;;;5075255;28;20729;-82
2022/01/16 05:28:56;;;;;;;1.67;1.50;;;;;;;;;;5075278;28;20224;-83
2022/01/16 05:31:23;;;;;;;2.05;1.95;;;;;;;;;;5074808;28;20208;-82
2022/01/16 05:33:52;;;;;;;2.20;2.00;;;;;;;;;;5074666;28;20720;-82
2022/01/16 05:36:21;;;;;;;1.95;1.60;;;;;;;;;;5075640;28;20205;-83
2022/01/16 05:38:48;;;;;;;1.95;1.85;;;;;;;;;;5075470;28;20279;-82
2022/01/16 05:41:18;;;;;;;2.55;2.35;;;;;;;;;;5075133;28;20204;-83
2022/01/16 05:43:47;;;;;;;2.42;2.22;;;;;;;;;;5074601;28;20283;-82
2022/01/16 05:46:15;;;;;;;3.25;2.20;;;;;;;;;;5075212;28;20205;-82
2022/01/16 05:48:43;;;;;;;2.60;2.40;;;;;;;;;;5077075;28;20205;-85
2022/01/16 05:51:10;;;;;;;1.98;1.88;;;;;;;;;;5077496;28;20216;-85
2022/01/16 05:53:38;;;;;;;4.43;3.55;;;;;;;;;;5077233;28;20307;-86
2022/01/16 05:56:06;;;;;;;3.30;3.00;;;;;;;;;;5077801;28;20201;-85
2022/01/16 05:58:34;;;;;;;2.92;2.72;;;;;;;;;;5077431;28;20215;-85
2022/01/16 06:01:03;;;;;;;3.38;3.08;;;;;;;;;;5077544;28;20204;-86
2022/01/16 06:03:30;;;;;;;3.10;2.80;;;;;;;;;;5076868;28;20226;-85
2022/01/16 06:05:57;;;;;;;3.45;3.08;;;;;;;;;;5077689;28;20201;-85
2022/01/16 06:08:25;;;;;;;3.72;3.42;;;;;;;;;;5077129;28;20221;-85
2022/01/16 06:10:52;;;;;;;3.47;3.15;;;;;;;;;;5077441;28;20201;-85
2022/01/16 06:13:20;;;;;;;4.97;4.30;;;;;;;;;;5077628;28;20217;-85
2022/01/16 06:15:47;;;;;;;3.35;3.05;;;;;;;;;;5077378;28;20201;-85
2022/01/16 06:18:16;;;;;;;4.88;4.45;;;;;;;;;;5078246;28;20258;-85
2022/01/16 06:20:43;;;;;;;4.40;4.00;;;;;;;;;;5076943;28;20200;-85
2022/01/16 06:23:12;;;;;;;4.68;4.10;;;;;;;;;;5077185;28;20217;-85
2022/01/16 06:25:39;;;;;;;3.65;3.17;;;;;;;;;;5077412;28;20200;-85
2022/01/16 06:28:06;;;;;;;5.38;4.85;;;;;;;;;;5077284;28;20228;-84
2022/01/16 06:30:35;;;;;;;5.95;5.38;;;;;;;;;;5076331;28;20212;-84
2022/01/16 06:33:05;;;;;;;9.48;6.65;;;;;;;;;;5076579;28;20220;-84
2022/01/16 06:35:34;;;;;;;6.35;5.50;;;;;;;;;;5077220;28;20205;-86
2022/01/16 06:38:01;;;;;;;4.13;3.72;;;;;;;;;;5076869;28;20258;-85
2022/01/16 06:40:28;;;;;;;4.10;3.70;;;;;;;;;;5077133;28;20687;-84
2022/01/16 06:42:56;;;;;;;4.32;3.92;;;;;;;;;;5076594;28;20573;-86
2022/01/16 06:45:23;;;;;;;4.85;4.22;;;;;;;;;;5076626;28;20661;-84
2022/01/16 06:47:51;;;;;;;5.45;4.38;;;;;;;;;;5077096;28;20270;-84
2022/01/16 06:50:19;;;;;;;5.00;4.30;;;;;;;;;;5076324;28;20658;-86
2022/01/16 06:52:48;;;;;;;5.57;4.97;;;;;;;;;;5076877;28;20221;-85
2022/01/16 06:55:15;;;;;;;4.03;3.63;;;;;;;;;;5077170;28;20197;-86
2022/01/16 06:57:42;;;;;;;5.78;4.60;;;;;;;;;;5079227;28;20250;-85
2022/01/16 07:00:11;;;;;;;6.10;4.95;;;;;;;;;;5078258;28;20208;-85
2022/01/16 07:02:39;;;;;;;6.68;6.00;;;;;;;;;;5078334;28;20213;-85
2022/01/16 07:05:07;;;;;;;5.75;5.15;;;;;;;;;;5078852;28;20204;-85
2022/01/16 07:07:34;;;;;;;5.45;4.90;;;;;;;;;;5078244;28;20232;-85
2022/01/16 07:10:03;;;;;;;4.05;3.65;;;;;;;;;;5077247;28;20582;-86
2022/01/16 07:12:31;;;;;;;5.50;4.93;;;;;;;;;;5076840;28;20594;-85
2022/01/16 07:14:58;;;;;;;5.50;4.53;;;;;;;;;;5077679;28;20213;-85
2022/01/16 07:17:26;;;;;;;7.80;5.75;;;;;;;;;;5077950;28;20201;-85
2022/01/16 07:19:53;;;;;;;6.57;5.60;;;;;;;;;;5078281;28;20243;-85
2022/01/16 07:22:21;;;;;;;5.28;4.78;;;;;;;;;;5077513;28;20220;-84
2022/01/16 07:24:49;;;;;;;6.18;4.75;;;;;;;;;;5077781;28;20626;-84
2022/01/16 07:27:18;;;;;;;5.38;4.82;;;;;;;;;;5077368;28;20201;-84
2022/01/16 07:29:45;;;;;;;6.07;4.93;;;;;;;;;;5077424;28;20778;-85
2022/01/16 07:32:12;;;;;;;6.05;5.00;;;;;;;;;;5080886;28;20228;-86
2022/01/16 07:34:40;;;;;;;4.65;4.22;;;;;;;;;;5080631;28;20212;-84
2022/01/16 07:37:07;;;;;;;4.78;4.28;;;;;;;;;;5080312;28;20201;-85
2022/01/16 07:39:37;;;;;;;6.90;5.20;;;;;;;;;;5080127;28;20664;-85
2022/01/16 07:42:05;;;;;;;5.03;4.20;;;;;;;;;;5079948;28;20225;-85
2022/01/16 07:44:34;;;;;;;6.43;5.82;;;;;;;;;;5079955;28;20201;-84
2022/01/16 07:47:01;;;;;;;6.38;5.30;;;;;;;;;;5079913;28;20661;-85
2022/01/16 07:49:29;;;;;;;6.25;4.78;;;;;;;;;;5080027;28;20252;-85
2022/01/16 07:51:56;;;;;;;5.10;4.60;;;;;;;;;;5080295;28;20205;-85
2022/01/16 07:54:24;;;;;;;4.47;4.07;;;;;;;;;;5080059;28;20223;-85
2022/01/16 07:56:51;;;;;;;8.10;7.13;;;;;;;;;;5080306;28;20189;-85
2022/01/16 07:59:18;;;;;;;10.15;7.68;;;;;;;;;;5079911;28;20211;-85
2022/01/16 08:01:48;;;;;;;6.00;5.40;;;;;;;;;;5079272;28;20830;-85
2022/01/16 08:04:15;;;;;;;6.68;6.03;;;;;;;;;;5079717;28;20200;-85
2022/01/16 08:06:43;;;;;;;6.88;5.70;;;;;;;;;;5078618;28;20582;-85
2022/01/16 08:09:10;;;;;;;5.05;4.47;;;;;;;;;;5080600;28;20242;-84
2022/01/16 08:11:37;;;;;;;5.95;4.55;;;;;;;;;;5080834;28;20200;-85
2022/01/16 08:14:05;;;;;;;3.50;3.20;;;;;;;;;;5079318;28;20221;-84
2022/01/16 08:16:32;;;;;;;3.47;3.17;;;;;;;;;;5079742;28;20204;-84
2022/01/16 08:19:01;;;;;;;2.85;2.65;;;;;;;;;;5079848;28;20205;-85
2022/01/16 08:21:28;;;;;;;4.38;3.97;;;;;;;;;;5081108;28;20201;-84
2022/01/16 08:23:55;;;;;;;3.63;3.33;;;;;;;;;;5080364;28;20221;-84
2022/01/16 08:26:23;;;;;;;3.67;3.38;;;;;;;;;;5080008;28;20219;-86
2022/01/16 08:28:50;;;;;;;4.78;4.28;;;;;;;;;;5081312;28;20225;-85
2022/01/16 08:31:17;;;;;;;3.40;3.15;;;;;;;;;;5079840;28;20200;-86
2022/01/16 08:33:44;;;;;;;4.70;4.30;;;;;;;;;;5079569;28;20237;-84
2022/01/16 08:36:13;;;;;;;4.00;3.42;;;;;;;;;;5080645;28;20204;-85
2022/01/16 08:38:40;;;;;;;3.97;3.58;;;;;;;;;;5080898;28;20254;-84
2022/01/16 08:41:08;;;;;;;3.33;3.03;;;;;;;;;;5080426;28;20196;-85
2022/01/16 08:43:35;;;;;;;3.17;2.88;;;;;;;;;;5079831;28;20728;-84
2022/01/16 08:46:02;;;;;;;3.58;3.28;;;;;;;;;;5080831;28;20201;-85
2022/01/16 08:48:30;;;;;;;4.45;4.05;;;;;;;;;;5080242;28;20839;-85
2022/01/16 08:50:58;;;;;;;3.35;2.80;;;;;;;;;;5079372;28;20200;-86
2022/01/16 08:53:27;;;;;;;4.38;3.72;;;;;;;;;;5080990;28;20239;-85
2022/01/16 08:55:54;;;;;;;3.78;3.42;;;;;;;;;;5080927;28;20208;-84
2022/01/16 08:58:21;;;;;;;3.67;3.38;;;;;;;;;;5080048;28;20197;-83
2022/01/16 09:00:50;;;;;;;3.05;2.83;;;;;;;;;;5077965;28;20630;-84
2022/01/16 09:03:18;;;;;;;4.00;3.25;;;;;;;;;;5079028;28;20252;-84
2022/01/16 09:05:48;;;;;;;5.32;4.60;;;;;;;;;;5079550;28;20212;-84
2022/01/16 09:08:17;;;;;;;3.08;2.78;;;;;;;;;;5083819;28;20195;-84
2022/01/16 09:10:46;;;;;;;4.38;3.97;;;;;;;;;;5096681;28;20213;-83
2022/01/16 09:13:15;;;;;;;3.78;3.47;;;;;;;;;;5097324;28;20220;-84
2022/01/16 09:15:43;;;;;;;4.53;3.63;;;;;;;;;;5098134;28;20208;-83
2022/01/16 09:18:11;;;;;;;3.20;2.90;;;;;;;;;;5098338;28;20265;-84
2022/01/16 09:20:39;;;;;;;3.72;3.15;;;;;;;;;;5097861;28;20192;-83
2022/01/16 09:23:07;;;;;;;3.65;2.95;;;;;;;;;;5096163;28;20232;-83
2022/01/16 09:25:34;;;;;;;3.28;2.95;;;;;;;;;;5096868;28;20253;-84
2022/01/16 09:28:03;;;;;;;3.35;3.05;;;;;;;;;;5096370;28;20220;-83
2022/01/16 09:30:31;;;;;;;3.40;3.10;;;;;;;;;;5097226;28;20221;-83
2022/01/16 09:32:59;;;;;;;2.95;2.72;;;;;;;;;;5096663;28;20221;-83
2022/01/16 09:35:27;;;;;;;4.78;4.38;;;;;;;;;;5097448;28;20192;-84
2022/01/16 09:37:54;;;;;;;3.80;3.25;;;;;;;;;;5097642;28;20193;-83
2022/01/16 09:40:23;;;;;;;4.40;4.00;;;;;;;;;;5098217;28;20203;-84
2022/01/16 09:42:52;;;;;;;4.00;3.38;;;;;;;;;;5098655;28;20224;-83
2022/01/16 09:45:22;;;;;;;4.15;3.78;;;;;;;;;;5099041;28;20291;-84
2022/01/16 09:47:51;;;;;;;4.72;4.00;;;;;;;;;;5099333;28;20192;-83
2022/01/16 09:50:23;;;;;;;3.72;3.42;;;;;;;;;;5098068;28;20228;-85
2022/01/16 09:52:51;;;;;;;3.35;3.05;;;;;;;;;;5097672;28;20224;-84
2022/01/16 09:55:20;;;;;;;3.10;2.80;;;;;;;;;;5098745;28;20204;-83
2022/01/16 09:57:48;;;;;;;4.95;3.90;;;;;;;;;;5099210;28;20231;-84
2022/01/16 10:00:18;;;;;;;4.72;4.05;;;;;;;;;;5098312;28;20192;-84
2022/01/16 10:02:48;;;;;;;4.05;3.45;;;;;;;;;;5098727;28;20232;-83
2022/01/16 10:05:34;;;;;;;3.35;3.05;;;;;;;;;;5097791;28;20189;-83
2022/01/16 10:08:04;;;;;;;3.67;3.38;;;;;;;;;;5081098;28;20544;-84
2022/01/16 10:10:35;;;;;;;3.90;3.53;;;;;;;;;;5077614;28;20221;-83
2022/01/16 10:13:21;;;;;;;4.43;3.83;;;;;;;;;;5077995;28;20223;-83
2022/01/16 10:15:54;;;;;;;3.92;3.33;;;;;;;;;;5077795;28;20575;-83
2022/01/16 10:18:35;;;;;;;3.65;3.35;;;;;;;;;;5077472;28;20219;-85
2022/01/16 10:21:03;;;;;;;4.82;3.80;;;;;;;;;;5078192;28;20192;-84
2022/01/16 10:23:30;;;;;;;3.78;3.47;;;;;;;;;;5076832;28;20225;-84
2022/01/16 10:25:58;;;;;;;4.20;3.42;;;;;;;;;;5076264;28;20578;-84
2022/01/16 10:28:27;;;;;;;4.22;3.83;;;;;;;;;;5075750;28;20205;-85
2022/01/16 10:30:56;;;;;;;3.33;3.03;;;;;;;;;;5078248;28;20216;-85
2022/01/16 10:33:26;;;;;;;4.90;3.83;;;;;;;;;;5076707;28;20229;-84
2022/01/16 10:35:57;;;;;;;4.40;3.80;;;;;;;;;;5077539;28;20254;-84
2022/01/16 10:38:27;;;;;;;5.60;4.93;;;;;;;;;;5076249;28;20193;-84
2022/01/16 10:40:56;;;;;;;5.82;4.65;;;;;;;;;;5076767;28;20197;-85
2022/01/16 10:43:39;;;;;;;5.88;4.78;;;;;;;;;;5075743;28;20239;-84
2022/01/16 10:46:08;;;;;;;6.25;4.60;;;;;;;;;;5076987;28;20247;-85
2022/01/16 10:48:35;;;;;;;5.53;5.03;;;;;;;;;;5077707;28;20201;-84
2022/01/16 10:51:04;;;;;;;6.95;5.70;;;;;;;;;;5077796;28;20228;-85
2022/01/16 10:53:39;;;;;;;3.85;3.30;;;;;;;;;;5076888;28;20256;-85
2022/01/16 10:56:07;;;;;;;5.45;4.55;;;;;;;;;;5078119;28;20645;-85
2022/01/16 10:58:41;;;;;;;5.20;4.70;;;;;;;;;;5077170;28;20201;-85
2022/01/16 11:01:13;;;;;;;6.03;5.43;;;;;;;;;;5076991;28;20200;-86
2022/01/16 11:03:44;;;;;;;5.78;5.20;;;;;;;;;;5076368;28;20701;-85
2022/01/16 11:06:13;;;;;;;4.53;4.10;;;;;;;;;;5080026;28;20570;-85
2022/01/16 11:08:43;;;;;;;6.93;6.03;;;;;;;;;;5080917;28;20247;-85
2022/01/16 11:11:12;;;;;;;6.25;5.63;;;;;;;;;;5081546;28;20324;-85
2022/01/16 11:13:40;;;;;;;4.55;4.15;;;;;;;;;;5080769;28;20232;-85
2022/01/16 11:16:10;;;;;;;7.07;5.38;;;;;;;;;;5080846;28;20292;-85
2022/01/16 11:18:40;;;;;;;7.18;5.45;;;;;;;;;;5080764;28;20204;-85
2022/01/16 11:21:18;;;;;;;5.75;5.22;;;;;;;;;;5080264;28;20201;-85
2022/01/16 11:24:00;;;;;;;8.23;6.75;;;;;;;;;;5080482;28;20217;-85
2022/01/16 11:26:28;;;;;;;6.32;5.72;;;;;;;;;;5081230;28;20231;-86
2022/01/16 11:28:57;;;;;;;6.18;4.80;;;;;;;;;;5080470;28;20201;-86
2022/01/16 11:31:24;;;;;;;4.47;4.00;;;;;;;;;;5079981;28;20216;-85
2022/01/16 11:33:52;;;;;;;7.22;5.85;;;;;;;;;;5080074;28;20237;-85
2022/01/16 11:36:22;;;;;;;6.88;5.57;;;;;;;;;;5079888;28;20205;-84
2022/01/16 11:38:55;;;;;;;5.95;5.45;;;;;;;;;;5079768;28;20204;-84
2022/01/16 11:41:31;;;;;;;8.75;6.38;;;;;;;;;;5080565;28;20212;-85
2022/01/16 11:44:00;;;;;;;6.82;6.07;;;;;;;;;;5080132;28;20620;-84
2022/01/16 11:46:28;;;;;;;7.55;5.80;;;;;;;;;;5080345;28;20200;-85
2022/01/16 11:49:05;;;;;;;6.25;5.65;;;;;;;;;;5080412;28;20652;-84
2022/01/16 11:52:02;;;;;;;4.97;4.40;;;;;;;;;;5079582;28;20918;-86
2022/01/16 11:54:38;;;;;;;6.28;5.20;;;;;;;;;;5079931;28;20197;-85
2022/01/16 11:57:26;;;;;;;6.40;5.70;;;;;;;;;;5080028;28;20193;-84
2022/01/16 11:59:56;;;;;;;6.78;5.95;;;;;;;;;;5080263;28;20576;-85
2022/01/16 12:02:28;;;;;;;6.53;5.93;;;;;;;;;;5079629;28;20232;-85
2022/01/16 12:05:05;;;;;;;6.32;5.70;;;;;;;;;;5080016;28;20197;-84
2022/01/16 12:07:54;;;;;;;8.15;7.25;;;;;;;;;;5079644;28;20196;-85
2022/01/16 12:10:47;;;;;;;6.70;6.03;;;;;;;;;;5080114;28;20201;-85
2022/01/16 12:13:58;;;;;;;7.75;5.20;;;;;;;;;;5079396;28;20251;-85
2022/01/16 12:16:45;;;;;;;6.53;5.93;;;;;;;;;;5063806;28;20209;-85
2022/01/16 12:19:43;;;;;;;8.18;7.38;;;;;;;;;;5079224;28;20589;-84
2022/01/16 12:22:42;;;;;;;7.13;5.72;;;;;;;;;;5079003;28;20594;-85
2022/01/16 12:25:16;;;;;;;6.22;5.45;;;;;;;;;;5079055;28;20318;-85
2022/01/16 12:27:48;;;;;;;9.57;7.95;;;;;;;;;;5081440;28;20686;-84
2022/01/16 12:30:37;;;;;;;10.20;8.10;;;;;;;;;;5083410;28;20205;-84
2022/01/16 12:33:10;;;;;;;9.13;8.23;;;;;;;;;;5079171;28;20227;-84
2022/01/16 12:36:00;;;;;;;7.43;5.57;;;;;;;;;;5078352;28;20205;-85
2022/01/16 12:38:29;;;;;;;8.63;7.43;;;;;;;;;;5078526;28;20240;-84
2022/01/16 12:41:04;;;;;;;7.80;6.80;;;;;;;;;;5078098;28;20201;-84
2022/01/16 12:43:40;;;;;;;9.88;8.02;;;;;;;;;;5078426;28;20631;-84
2022/01/16 12:46:10;;;;;;;8.77;7.40;;;;;;;;;;5077969;28;20586;-83
2022/01/16 12:48:43;;;;;;;8.10;6.82;;;;;;;;;;5079235;28;20250;-85
2022/01/16 12:51:11;;;;;;;8.07;6.93;;;;;;;;;;5077857;28;20231;-86
2022/01/16 12:53:41;;;;;;;8.55;7.50;;;;;;;;;;5077900;28;20224;-85
2022/01/16 12:56:21;;;;;;;7.80;6.40;;;;;;;;;;5077408;28;20657;-85
2022/01/16 12:58:52;;;;;;;8.93;7.38;;;;;;;;;;5077267;28;20201;-85
2022/01/16 13:01:19;;;;;;;7.72;6.07;;;;;;;;;;5078062;28;20660;-85
2022/01/16 13:03:47;;;;;;;8.45;7.20;;;;;;;;;;5076887;28;20220;-85
2022/01/16 13:06:17;;;;;;;6.43;5.82;;;;;;;;;;5077086;28;20208;-85
2022/01/16 13:09:04;;;;;;;8.68;6.70;;;;;;;;;;5077512;28;20590;-85
2022/01/16 13:11:34;;;;;;;5.95;5.18;;;;;;;;;;5077837;28;20228;-86
2022/01/16 13:14:04;;;;;;;7.95;5.22;;;;;;;;;;5077949;28;20221;-84
2022/01/16 13:16:34;;;;;;;6.70;6.03;;;;;;;;;;5077392;28;20620;-84
2022/01/16 13:19:08;;;;;;;8.52;7.25;;;;;;;;;;5076850;28;20201;-85
2022/01/16 13:21:42;;;;;;;7.93;6.78;;;;;;;;;;5076859;28;20208;-85
2022/01/16 13:24:10;;;;;;;7.88;6.60;;;;;;;;;;5076983;28;20699;-84
2022/01/16 13:26:38;;;;;;;8.52;7.43;;;;;;;;;;5078455;28;20208;-85
2022/01/16 13:29:08;;;;;;;8.55;7.55;;;;;;;;;;5076142;28;20204;-84
2022/01/16 13:31:36;;;;;;;6.93;6.22;;;;;;;;;;5075371;28;20243;-86
2022/01/16 13:34:09;;;;;;;5.88;4.97;;;;;;;;;;5077349;28;20229;-86
2022/01/16 13:36:36;;;;;;;9.40;8.23;;;;;;;;;;5077262;28;20177;-85
2022/01/16 13:39:04;;;;;;;8.20;7.25;;;;;;;;;;5076874;28;20208;-86
2022/01/16 13:41:32;;;;;;;5.45;4.88;;;;;;;;;;5076764;28;20193;-85
2022/01/16 13:43:59;;;;;;;9.02;7.95;;;;;;;;;;5076889;28;20233;-84
2022/01/16 13:46:30;;;;;;;7.60;6.80;;;;;;;;;;5077230;28;20583;-85
2022/01/16 13:49:04;;;;;;;10.35;9.35;;;;;;;;;;5076463;28;20211;-85
2022/01/16 13:51:31;;;;;;;8.15;7.35;;;;;;;;;;5076794;28;20271;-87
2022/01/16 13:54:11;;;;;;;11.90;8.25;;;;;;;;;;5076590;28;20636;-85
2022/01/16 13:56:50;;;;;;;9.23;7.55;;;;;;;;;;5077170;28;20204;-85
2022/01/16 13:59:17;;;;;;;8.50;7.57;;;;;;;;;;5077206;28;20221;-85
2022/01/16 14:01:53;;;;;;;8.75;7.60;;;;;;;;;;5077674;28;20197;-84
2022/01/16 14:04:23;;;;;;;7.03;5.72;;;;;;;;;;5076620;28;20200;-86
2022/01/16 14:06:55;;;;;;;5.82;5.22;;;;;;;;;;5077094;28;20587;-86
2022/01/16 14:09:24;;;;;;;8.75;6.40;;;;;;;;;;5077041;28;20201;-86
2022/01/16 14:11:54;;;;;;;7.88;6.28;;;;;;;;;;5076587;28;20203;-85
2022/01/16 14:14:26;;;;;;;7.65;6.95;;;;;;;;;;5077146;28;20274;-86
2022/01/16 14:17:27;;;;;;;8.15;7.35;;;;;;;;;;5077285;28;20227;-85
2022/01/16 14:20:21;;;;;;;9.65;7.15;;;;;;;;;;5077182;28;20203;-86
2022/01/16 14:22:48;;;;;;;9.43;8.43;;;;;;;;;;5077036;28;20302;-86
2022/01/16 14:25:15;;;;;;;6.95;6.25;;;;;;;;;;5077277;28;20666;-86
2022/01/16 14:27:43;;;;;;;6.47;5.88;;;;;;;;;;5077325;28;20261;-85
2022/01/16 14:30:13;;;;;;;9.20;7.63;;;;;;;;;;5076448;28;20201;-85
2022/01/16 14:32:41;;;;;;;7.50;6.72;;;;;;;;;;5077044;28;20249;-84
2022/01/16 14:35:09;;;;;;;5.82;5.32;;;;;;;;;;5076644;28;20205;-85
2022/01/16 14:37:37;;;;;;;8.20;7.03;;;;;;;;;;5076804;28;20626;-84
2022/01/16 14:40:06;;;;;;;6.07;5.47;;;;;;;;;;5079620;28;20657;-84
2022/01/16 14:42:38;;;;;;;6.68;6.03;;;;;;;;;;5081309;28;20705;-85
2022/01/16 14:45:07;;;;;;;6.80;6.10;;;;;;;;;;5081176;28;20203;-85
2022/01/16 14:47:34;;;;;;;9.02;6.13;;;;;;;;;;5080896;28;20676;-86
2022/01/16 14:50:03;;;;;;;9.90;5.97;;;;;;;;;;5080820;28;20224;-85
2022/01/16 14:52:30;;;;;;;7.22;6.13;;;;;;;;;;5079760;28;20224;-85
2022/01/16 14:54:58;;;;;;;8.93;8.07;;;;;;;;;;5080112;28;20201;-85
2022/01/16 14:57:25;;;;;;;8.73;7.28;;;;;;;;;;5081003;28;20227;-84
2022/01/16 14:59:55;;;;;;;10.48;6.72;;;;;;;;;;5080318;28;20210;-85
2022/01/16 15:02:22;;;;;;;8.70;7.18;;;;;;;;;;5080370;28;20236;-84
2022/01/16 15:04:50;;;;;;;9.73;8.57;;;;;;;;;;5080893;28;20604;-85
2022/01/16 15:07:18;;;;;;;11.70;8.50;;;;;;;;;;5081117;28;20619;-86
2022/01/16 15:09:46;;;;;;;8.02;6.97;;;;;;;;;;5080626;28;20197;-85
2022/01/16 15:12:13;;;;;;;8.40;6.93;;;;;;;;;;5079906;28;20229;-86
2022/01/16 15:14:40;;;;;;;10.13;7.78;;;;;;;;;;5080455;28;20574;-85
2022/01/16 15:17:08;;;;;;;9.70;7.43;;;;;;;;;;5081101;28;20197;-84
2022/01/16 15:19:36;;;;;;;9.23;8.02;;;;;;;;;;5081076;28;20300;-86
2022/01/16 15:22:12;;;;;;;8.30;7.28;;;;;;;;;;5080106;28;20241;-85
2022/01/16 15:24:41;;;;;;;8.77;6.30;;;;;;;;;;5079963;28;20196;-85
2022/01/16 15:27:09;;;;;;;7.55;6.82;;;;;;;;;;5080317;28;20197;-86
2022/01/16 15:29:37;;;;;;;7.70;6.88;;;;;;;;;;5080524;28;20201;-84
2022/01/16 15:32:05;;;;;;;7.22;6.50;;;;;;;;;;5079778;28;20224;-85